Atlantic Beach, North Carolina
Current Conditions -  °F | °C
As of 5:58 PM on Saturday 22 Nov 2014 (Local Time) from KMRH Reporting Station
Clear Clear  
Wind Chill: 44°   Ceiling: Unl
Heat Index: 46°   Visibility: 10mi
Dew Point: 38°   Wind: 5mph
Humidity: 73%   Direction: 60°ENE
Pressure: 30.42"   Gusts: NA
Location:  34.7°N, 76.74°W
Report Text: KMRH 222258Z AUTO 06004KT 10SM CLR 08/03 A3042 RMK AO2 SLP300 T00780033 TSNO
Loading
Personal Weather Stations






























Interactive Weather Map New forecast layout! Learn more

10-Day Weather Forecast

Advertisements
Track Severe Weather on mobile